Taylor, Louisiana
Current Conditions -  °F | °C
As of 3:16 PM on Saturday 22 Nov 2014 (Local Time) from KMNE Reporting Station
Overcast Overcast  
Wind Chill: 68°   Ceiling: 3800
Heat Index: 68°   Visibility: 10mi
Dew Point: 57°   Wind: 6mph
Humidity: 68%   Direction: 140°SE
Pressure: 29.99"   Gusts: NA
Location:  32.55°N, 93.12°W
Report Text: KMNE 222116Z AUTO 14005KT 10SM SCT033 OVC038 20/14 A2999 RMK AO2 LTG DSNT W
Loading
Personal Weather Stations






























Interactive Weather Map New forecast layout! Learn more

10-Day Weather Forecast

Advertisements
Track Severe Weather on mobile